Terminal Aerodrome Forecast
Issued by NWS Springfield, MO

Home | Current Version | Previous Version | Text Only | Print | Product List | Glossary On
Versions: 1 2 3 4 5 6 7 8 9 10 11 12 13 14 15
000
FTUS43 KSGF 010500
TAFSGF
TAF
KSGF 010533Z 0106/0206 16018G26KT 5SM -RA BR OVC025
     FM010900 18012KT 4SM -RA BR OVC007 WS020/24040KT
     FM011300 21008KT 3SM -DZRA BR OVC007
     FM011700 28017G28KT 5SM -RADZ OVC007
     FM012000 30018G29KT 5SM -SNDZ OVC015
     FM020000 31015G25KT 6SM -SN OVC015=

USA.gov is the U.S. government's official web portal to all federal, state and local government web resources and services.